createdAt,value
2022-12-29T00:00:13.204Z,9.20
2022-12-29T00:02:41.761Z,13.13
2022-12-29T00:05:11.408Z,9.63
2022-12-29T00:07:39.833Z,8.27
2022-12-29T00:10:09.690Z,11.50
2022-12-29T00:12:55.724Z,10.53
2022-12-29T00:15:40.688Z,7.30
2022-12-29T00:18:10.126Z,8.63
2022-12-29T00:20:56.692Z,9.30
2022-12-29T00:23:43.245Z,6.37
2022-12-29T00:26:33.420Z,7.47
2022-12-29T00:29:19.557Z,9.20
2022-12-29T00:32:06.925Z,9.20
2022-12-29T00:34:53.030Z,11.43
2022-12-29T00:37:42.367Z,6.47
2022-12-29T00:40:28.983Z,5.30
2022-12-29T00:43:14.996Z,9.93
2022-12-29T00:45:43.946Z,5.97
2022-12-29T00:48:13.713Z,5.60
2022-12-29T00:50:41.502Z,6.97
2022-12-29T00:53:09.874Z,7.70
2022-12-29T00:55:39.712Z,7.43
2022-12-29T00:58:08.100Z,6.57
2022-12-29T01:00:36.524Z,4.87
2022-12-29T01:03:05.359Z,6.67
2022-12-29T01:05:38.560Z,6.33
2022-12-29T01:08:07.387Z,9.23
2022-12-29T01:10:34.844Z,5.33
2022-12-29T01:13:03.231Z,6.70
2022-12-29T01:15:31.679Z,7.80
2022-12-29T01:18:00.122Z,10.03
2022-12-29T01:20:29.668Z,9.70
2022-12-29T01:22:59.436Z,9.47
2022-12-29T01:25:27.845Z,8.37
2022-12-29T01:27:56.249Z,10.97
2022-12-29T01:30:24.621Z,6.93
2022-12-29T01:32:53.009Z,6.53
2022-12-29T01:35:21.595Z,7.63
2022-12-29T01:37:50.009Z,10.23
2022-12-29T01:40:19.969Z,8.43
2022-12-29T01:42:48.458Z,8.97
2022-12-29T01:45:18.625Z,12.00
2022-12-29T01:47:50.382Z,6.97
2022-12-29T01:50:24.571Z,9.30
2022-12-29T01:52:58.508Z,6.20
2022-12-29T01:55:29.388Z,8.23
2022-12-29T01:58:01.116Z,8.30
2022-12-29T02:00:29.843Z,7.90
2022-12-29T02:02:58.435Z,9.03
2022-12-29T02:05:35.874Z,6.47
2022-12-29T02:08:05.088Z,7.87
2022-12-29T02:10:36.808Z,7.87
2022-12-29T02:13:05.249Z,8.17
2022-12-29T02:15:44.263Z,7.57
2022-12-29T02:18:30.342Z,11.30
2022-12-29T02:21:50.225Z,7.70
2022-12-29T02:24:51.749Z,8.53
2022-12-29T02:27:55.172Z,7.77
2022-12-29T02:31:02.286Z,9.97
2022-12-29T02:33:50.684Z,3.77
2022-12-29T02:36:32.072Z,7.10
2022-12-29T02:39:13.281Z,6.20
2022-12-29T02:41:57.651Z,8.17
2022-12-29T02:44:31.196Z,7.80
2022-12-29T02:47:11.378Z,7.07
2022-12-29T02:49:48.251Z,5.90
2022-12-29T02:52:25.009Z,6.37
2022-12-29T02:54:55.529Z,6.57
2022-12-29T02:57:34.816Z,9.77
2022-12-29T03:00:08.758Z,5.40
2022-12-29T03:03:18.854Z,5.97
2022-12-29T03:06:14.478Z,9.57
2022-12-29T03:08:52.295Z,8.93
2022-12-29T03:11:38.286Z,8.13
2022-12-29T03:14:34.607Z,5.93
2022-12-29T03:17:17.381Z,9.97
2022-12-29T03:19:53.347Z,6.60
2022-12-29T03:22:29.402Z,8.47
2022-12-29T03:25:03.820Z,7.20
2022-12-29T03:27:36.413Z,8.03
2022-12-29T03:30:10.010Z,7.83
2022-12-29T03:32:44.123Z,7.53
2022-12-29T03:35:18.563Z,7.37
2022-12-29T03:37:54.362Z,8.57
2022-12-29T03:40:25.887Z,8.17
2022-12-29T03:42:55.855Z,7.33
2022-12-29T03:45:24.406Z,7.00
2022-12-29T03:47:54.289Z,8.57
2022-12-29T03:50:24.054Z,7.33
2022-12-29T03:52:52.463Z,6.60
2022-12-29T03:55:20.898Z,9.63
2022-12-29T03:57:49.282Z,4.87
2022-12-29T04:00:18.140Z,7.47
2022-12-29T04:02:47.001Z,7.07
2022-12-29T04:05:15.871Z,5.90
2022-12-29T04:07:45.665Z,6.23
2022-12-29T04:10:14.064Z,7.93
2022-12-29T04:12:43.191Z,9.07
2022-12-29T04:15:12.728Z,6.30
2022-12-29T04:17:41.176Z,6.93
2022-12-29T04:20:28.302Z,5.80
2022-12-29T04:23:02.824Z,7.90
2022-12-29T04:25:32.841Z,6.20
2022-12-29T04:28:01.245Z,8.97
2022-12-29T04:30:29.943Z,6.93
2022-12-29T04:32:58.356Z,7.10
2022-12-29T04:35:26.783Z,6.13
2022-12-29T04:37:55.177Z,6.70
2022-12-29T04:40:25.354Z,5.90
2022-12-29T04:42:53.825Z,4.83
2022-12-29T04:45:22.404Z,4.63
2022-12-29T04:47:50.852Z,7.90
2022-12-29T04:50:19.492Z,6.67
2022-12-29T04:52:47.950Z,6.63
2022-12-29T04:55:16.944Z,9.17
2022-12-29T04:57:48.484Z,5.87
2022-12-29T05:00:17.671Z,6.97
2022-12-29T05:02:47.543Z,9.27
2022-12-29T05:05:16.192Z,8.63
2022-12-29T05:07:44.702Z,9.10
2022-12-29T05:10:13.534Z,7.83
2022-12-29T05:12:42.868Z,6.20
2022-12-29T05:15:13.532Z,8.17
2022-12-29T05:17:43.106Z,8.53
2022-12-29T05:20:12.764Z,6.20
2022-12-29T05:22:41.252Z,6.73
2022-12-29T05:25:11.066Z,7.40
2022-12-29T05:27:39.591Z,7.83
2022-12-29T05:30:10.192Z,7.63
2022-12-29T05:32:39.960Z,6.30
2022-12-29T05:35:09.891Z,5.97
2022-12-29T05:37:38.313Z,8.17
2022-12-29T05:40:08.929Z,9.07
2022-12-29T05:42:37.444Z,8.17
2022-12-29T05:45:08.273Z,7.30
2022-12-29T05:47:36.813Z,8.90
2022-12-29T05:50:07.608Z,9.77
2022-12-29T05:52:36.023Z,11.23
2022-12-29T05:55:04.526Z,6.40
2022-12-29T05:57:32.956Z,8.63
2022-12-29T06:00:01.771Z,8.10
2022-12-29T06:02:30.351Z,8.77
2022-12-29T06:04:58.904Z,8.77
2022-12-29T06:07:28.811Z,7.93
2022-12-29T06:09:57.207Z,7.97
2022-12-29T06:12:25.601Z,8.53
2022-12-29T06:14:54.099Z,7.97
2022-12-29T06:17:22.511Z,7.43
2022-12-29T06:19:50.933Z,10.93
2022-12-29T06:22:19.343Z,9.47
2022-12-29T06:24:49.194Z,8.87
2022-12-29T06:27:17.656Z,8.90
2022-12-29T06:29:46.089Z,9.00
2022-12-29T06:32:14.598Z,10.90
2022-12-29T06:34:43.116Z,8.80
2022-12-29T06:37:11.555Z,7.67
2022-12-29T06:39:39.971Z,7.90
2022-12-29T06:42:10.836Z,9.13
2022-12-29T06:44:39.263Z,8.60
2022-12-29T06:47:07.690Z,9.53
2022-12-29T06:49:36.109Z,15.57
2022-12-29T06:52:12.256Z,13.10
2022-12-29T06:54:41.323Z,8.63
2022-12-29T06:57:11.297Z,11.13
2022-12-29T06:59:39.706Z,14.03
2022-12-29T07:02:08.566Z,11.13
2022-12-29T07:04:37.091Z,11.30
2022-12-29T07:07:05.897Z,12.07
2022-12-29T07:09:34.364Z,9.47
2022-12-29T07:12:02.804Z,13.90
2022-12-29T07:14:37.341Z,13.20
2022-12-29T07:17:09.276Z,12.67
2022-12-29T07:19:37.786Z,15.10
2022-12-29T07:22:06.162Z,13.37
2022-12-29T07:24:34.559Z,11.65
2022-12-29T07:27:02.922Z,12.87
2022-12-29T07:29:32.692Z,11.10
2022-12-29T07:32:01.112Z,9.53
2022-12-29T07:34:29.539Z,11.87
2022-12-29T07:36:58.159Z,11.50
2022-12-29T07:39:27.033Z,12.27
2022-12-29T07:41:59.572Z,13.30
2022-12-29T07:44:32.572Z,14.07
2022-12-29T07:47:01.079Z,13.13
2022-12-29T07:49:30.994Z,12.63
2022-12-29T07:51:59.454Z,13.00
2022-12-29T07:54:28.149Z,14.73
2022-12-29T07:56:56.674Z,13.73
2022-12-29T07:59:25.070Z,10.77
2022-12-29T08:01:55.723Z,13.90
2022-12-29T08:04:24.378Z,17.87
2022-12-29T08:06:52.856Z,13.43
2022-12-29T08:09:24.019Z,12.00
2022-12-29T08:11:53.238Z,13.40
2022-12-29T08:14:21.831Z,14.73
2022-12-29T08:16:50.264Z,14.53
2022-12-29T08:19:20.176Z,18.60
2022-12-29T08:21:48.631Z,10.90
2022-12-29T08:24:17.080Z,15.68
2022-12-29T08:26:45.563Z,21.48
2022-12-29T08:29:14.043Z,16.08
2022-12-29T08:31:42.490Z,18.67
2022-12-29T08:34:12.177Z,17.00
2022-12-29T08:36:42.134Z,15.75
2022-12-29T08:39:10.624Z,14.43
2022-12-29T08:41:39.471Z,12.70
2022-12-29T08:44:08.125Z,12.50
2022-12-29T08:46:36.615Z,14.23
2022-12-29T08:49:05.107Z,17.20
2022-12-29T08:51:33.763Z,11.15
2022-12-29T08:54:03.739Z,13.82
2022-12-29T08:56:32.421Z,20.25
2022-12-29T08:59:00.839Z,16.65
2022-12-29T09:01:29.489Z,14.13
2022-12-29T09:04:16.008Z,17.75
2022-12-29T09:06:45.946Z,15.30
2022-12-29T09:09:17.041Z,13.05
2022-12-29T09:11:45.876Z,17.15
2022-12-29T09:14:15.203Z,14.50
2022-12-29T09:17:01.419Z,13.03
2022-12-29T09:19:29.930Z,12.63
2022-12-29T09:21:58.485Z,12.63
2022-12-29T09:24:28.267Z,17.02
2022-12-29T09:26:56.799Z,13.07
2022-12-29T09:29:25.362Z,10.32
2022-12-29T09:31:53.932Z,11.88
2022-12-29T09:34:22.654Z,11.68
2022-12-29T09:36:51.155Z,10.77
2022-12-29T09:39:19.735Z,13.13
2022-12-29T09:42:00.038Z,12.65
2022-12-29T09:44:47.532Z,11.18
2022-12-29T09:47:19.163Z,10.85
2022-12-29T09:49:52.492Z,12.50
2022-12-29T09:52:26.846Z,10.70
2022-12-29T09:55:03.854Z,11.00
2022-12-29T09:57:43.482Z,11.77
2022-12-29T10:00:18.814Z,13.95
2022-12-29T10:02:52.939Z,12.80
2022-12-29T10:05:32.831Z,13.32
2022-12-29T10:08:25.445Z,13.40
2022-12-29T10:10:59.156Z,16.80
2022-12-29T10:13:42.908Z,12.77
2022-12-29T10:16:18.114Z,21.20
2022-12-29T10:19:22.228Z,12.77
2022-12-29T10:22:05.279Z,13.57
2022-12-29T10:24:38.175Z,13.75
2022-12-29T10:27:11.974Z,12.70
2022-12-29T10:29:47.542Z,14.35
2022-12-29T10:32:28.378Z,14.80
2022-12-29T10:35:01.483Z,13.45
2022-12-29T10:37:41.122Z,20.00
2022-12-29T10:40:23.169Z,15.13
2022-12-29T10:42:56.165Z,13.77
2022-12-29T10:45:31.457Z,13.27
2022-12-29T10:48:06.989Z,15.65
2022-12-29T10:50:35.977Z,15.88
2022-12-29T10:53:07.788Z,16.88
2022-12-29T10:55:40.236Z,16.30
2022-12-29T10:58:13.566Z,17.33
2022-12-29T11:00:45.297Z,17.23
2022-12-29T11:03:45.452Z,14.80
2022-12-29T11:06:20.848Z,13.70
2022-12-29T11:08:58.695Z,15.98
2022-12-29T11:11:34.871Z,14.10
2022-12-29T11:14:14.658Z,11.55
2022-12-29T11:16:46.132Z,13.13
2022-12-29T11:19:26.159Z,12.00
2022-12-29T11:21:55.510Z,12.52
2022-12-29T11:24:27.224Z,13.23
2022-12-29T11:26:58.673Z,13.90
2022-12-29T11:29:39.003Z,15.85
2022-12-29T11:32:27.880Z,13.90
2022-12-29T11:34:58.695Z,14.35
2022-12-29T11:37:32.458Z,15.10
2022-12-29T11:40:06.083Z,14.60
2022-12-29T11:42:39.675Z,13.50
2022-12-29T11:45:17.376Z,17.00
2022-12-29T11:47:51.446Z,17.05
2022-12-29T11:50:23.746Z,12.90
2022-12-29T11:53:03.458Z,15.80
2022-12-29T11:55:32.807Z,16.30
2022-12-29T11:58:05.940Z,20.45
2022-12-29T12:00:41.372Z,18.77
2022-12-29T12:03:19.824Z,16.98
2022-12-29T12:05:54.889Z,19.92
2022-12-29T12:08:36.643Z,14.90
2022-12-29T12:11:13.338Z,16.77
2022-12-29T12:14:00.652Z,13.30
2022-12-29T12:16:35.753Z,13.70
2022-12-29T12:19:15.423Z,17.23
2022-12-29T12:21:49.635Z,13.85
2022-12-29T12:24:40.214Z,16.35
2022-12-29T12:27:17.500Z,17.23
2022-12-29T12:29:55.047Z,17.27
2022-12-29T12:32:33.501Z,17.67
2022-12-29T12:35:04.848Z,15.52
2022-12-29T12:38:03.385Z,14.82
2022-12-29T12:40:56.590Z,13.10
2022-12-29T12:43:52.098Z,14.52
2022-12-29T12:46:50.299Z,16.13
2022-12-29T12:50:06.302Z,15.18
2022-12-29T12:52:55.742Z,11.27
2022-12-29T12:55:50.363Z,15.48
2022-12-29T12:58:32.496Z,14.60
2022-12-29T13:01:20.450Z,14.48
2022-12-29T13:04:15.833Z,14.25
2022-12-29T13:06:53.692Z,17.05
2022-12-29T13:09:39.795Z,18.60
2022-12-29T13:12:26.852Z,15.63
2022-12-29T13:15:11.582Z,15.90
2022-12-29T13:17:50.793Z,19.33
2022-12-29T13:20:32.007Z,13.07
2022-12-29T13:23:09.171Z,12.30
2022-12-29T13:25:49.562Z,16.15
2022-12-29T13:28:27.744Z,14.35
2022-12-29T13:31:03.413Z,14.88
2022-12-29T13:33:47.414Z,15.50
2022-12-29T13:36:26.163Z,18.73
2022-12-29T13:39:05.390Z,16.48
2022-12-29T13:41:39.666Z,16.52
2022-12-29T13:44:11.581Z,18.13
2022-12-29T13:46:45.407Z,21.23
2022-12-29T13:49:19.071Z,20.55
2022-12-29T13:51:52.923Z,18.08
2022-12-29T13:54:36.907Z,23.20
2022-12-29T13:57:15.867Z,16.67
2022-12-29T13:59:53.797Z,15.18
2022-12-29T14:02:40.294Z,15.43
2022-12-29T14:05:31.009Z,17.08
2022-12-29T14:08:03.397Z,16.23
2022-12-29T14:10:37.070Z,15.75
2022-12-29T14:13:13.216Z,17.77
2022-12-29T14:15:44.755Z,15.93
2022-12-29T14:18:20.916Z,20.58
2022-12-29T14:20:57.944Z,19.33
2022-12-29T14:23:40.876Z,15.70
2022-12-29T14:26:17.220Z,15.45
2022-12-29T14:28:48.555Z,14.65
2022-12-29T14:31:42.964Z,20.60
2022-12-29T14:34:31.668Z,18.17
2022-12-29T14:37:02.511Z,20.38
2022-12-29T14:39:39.719Z,17.85
2022-12-29T14:42:14.869Z,16.08
2022-12-29T14:44:52.653Z,17.65
2022-12-29T14:47:26.623Z,16.05
2022-12-29T14:49:56.235Z,15.40
2022-12-29T14:52:30.120Z,17.48
2022-12-29T14:55:02.149Z,16.17
2022-12-29T14:57:39.348Z,18.20
2022-12-29T15:00:19.733Z,14.93
2022-12-29T15:02:52.876Z,18.67
2022-12-29T15:05:37.073Z,17.50
2022-12-29T15:08:07.785Z,18.77
2022-12-29T15:10:44.973Z,14.75
2022-12-29T15:13:23.791Z,15.32
2022-12-29T15:15:54.489Z,15.40
2022-12-29T15:18:27.557Z,15.48
2022-12-29T15:20:58.941Z,15.40
2022-12-29T15:23:27.667Z,15.57
2022-12-29T15:25:59.645Z,17.40
2022-12-29T15:28:29.245Z,17.20
2022-12-29T15:31:06.206Z,19.00
2022-12-29T15:33:42.361Z,16.05
2022-12-29T15:36:20.063Z,18.10
2022-12-29T15:38:49.195Z,16.63
2022-12-29T15:41:33.587Z,19.10
2022-12-29T15:44:17.153Z,16.75
2022-12-29T15:46:47.015Z,19.50
2022-12-29T15:49:18.126Z,18.63
2022-12-29T15:51:47.332Z,16.83
2022-12-29T15:54:20.193Z,16.58
2022-12-29T15:56:49.287Z,16.70
2022-12-29T15:59:28.864Z,17.97
2022-12-29T16:02:03.557Z,18.00
2022-12-29T16:04:48.409Z,19.63
2022-12-29T16:07:33.288Z,13.87
2022-12-29T16:10:05.188Z,15.20
2022-12-29T16:12:37.619Z,19.33
2022-12-29T16:15:14.983Z,20.33
2022-12-29T16:17:51.648Z,16.42
2022-12-29T16:20:23.519Z,22.60
2022-12-29T16:22:57.323Z,18.73
2022-12-29T16:25:32.255Z,19.77
2022-12-29T16:28:01.823Z,16.50
2022-12-29T16:30:34.516Z,16.47
2022-12-29T16:33:07.080Z,15.20
2022-12-29T16:35:48.337Z,14.48
2022-12-29T16:38:18.902Z,15.00
2022-12-29T16:40:54.442Z,15.13
2022-12-29T16:43:26.275Z,14.93
2022-12-29T16:46:23.260Z,16.10
2022-12-29T16:48:56.687Z,16.40
2022-12-29T16:51:34.193Z,16.90
2022-12-29T16:54:03.693Z,14.53
2022-12-29T16:56:37.393Z,13.50
2022-12-29T16:59:09.825Z,17.63
2022-12-29T17:01:39.669Z,13.27
2022-12-29T17:04:13.193Z,13.37
2022-12-29T17:06:42.572Z,13.50
2022-12-29T17:09:22.410Z,14.87
2022-12-29T17:12:01.620Z,14.00
2022-12-29T17:14:48.487Z,17.20
2022-12-29T17:17:21.751Z,12.63
2022-12-29T17:19:55.647Z,16.97
2022-12-29T17:22:26.804Z,20.40
2022-12-29T17:24:56.796Z,14.18
2022-12-29T17:27:33.985Z,16.63
2022-12-29T17:30:07.202Z,13.30
2022-12-29T17:32:35.656Z,15.10
2022-12-29T17:35:06.423Z,12.60
2022-12-29T17:37:39.492Z,13.50
2022-12-29T17:40:15.871Z,17.50
2022-12-29T17:42:46.718Z,13.90
2022-12-29T17:45:18.234Z,13.77
2022-12-29T17:47:47.542Z,13.70
2022-12-29T17:50:20.189Z,12.57
2022-12-29T17:53:00.122Z,15.50
2022-12-29T17:55:37.267Z,11.95
2022-12-29T17:58:18.843Z,16.67
2022-12-29T18:00:48.692Z,17.65
2022-12-29T18:03:18.924Z,19.65
2022-12-29T18:05:49.982Z,15.02
2022-12-29T18:08:18.791Z,17.88
2022-12-29T18:10:48.056Z,17.00
2022-12-29T18:13:22.463Z,15.25
2022-12-29T18:15:51.484Z,14.33
2022-12-29T18:18:22.786Z,14.30
2022-12-29T18:20:54.808Z,19.17
2022-12-29T18:23:25.959Z,16.85
2022-12-29T18:25:57.323Z,11.77
2022-12-29T18:28:25.919Z,15.77
2022-12-29T18:30:55.086Z,15.95
2022-12-29T18:33:26.492Z,19.50
2022-12-29T18:35:59.179Z,12.85
2022-12-29T18:38:28.415Z,19.90
2022-12-29T18:40:57.961Z,23.80
2022-12-29T18:43:27.456Z,20.90
2022-12-29T18:45:56.322Z,13.52
2022-12-29T18:48:25.411Z,13.43
2022-12-29T18:50:54.271Z,15.05
2022-12-29T18:53:26.004Z,17.33
2022-12-29T18:55:57.613Z,14.38
2022-12-29T18:58:33.760Z,19.40
2022-12-29T19:01:03.299Z,16.50
2022-12-29T19:03:32.666Z,14.98
2022-12-29T19:06:01.546Z,14.50
2022-12-29T19:08:31.519Z,14.65
2022-12-29T19:11:01.410Z,12.60
2022-12-29T19:13:30.030Z,18.75
2022-12-29T19:16:00.041Z,13.57
2022-12-29T19:18:53.257Z,15.85
2022-12-29T19:21:20.118Z,15.00
2022-12-29T19:23:51.960Z,18.02
2022-12-29T19:26:31.854Z,14.15
2022-12-29T19:29:01.985Z,15.73
2022-12-29T19:31:30.604Z,14.63
2022-12-29T19:33:59.084Z,13.07
2022-12-29T19:36:27.713Z,15.18
2022-12-29T19:38:57.680Z,12.00
2022-12-29T19:41:26.618Z,17.55
2022-12-29T19:43:55.740Z,20.13
2022-12-29T19:46:25.634Z,12.77
2022-12-29T19:48:58.872Z,13.90
2022-12-29T19:51:29.696Z,14.13
2022-12-29T19:54:00.261Z,16.70
2022-12-29T19:56:29.144Z,16.90
2022-12-29T19:58:58.643Z,17.20
2022-12-29T20:01:28.185Z,19.48
2022-12-29T20:03:57.035Z,14.63
2022-12-29T20:06:25.592Z,17.50
2022-12-29T20:08:55.823Z,14.93
2022-12-29T20:11:26.286Z,19.75
2022-12-29T20:13:56.079Z,24.65
2022-12-29T20:16:26.081Z,21.42
2022-12-29T20:18:56.809Z,18.58
2022-12-29T20:21:27.137Z,18.13
2022-12-29T20:23:56.447Z,17.25
2022-12-29T20:26:30.378Z,22.25
2022-12-29T20:29:00.199Z,18.48
2022-12-29T20:31:32.340Z,24.23
2022-12-29T20:34:02.449Z,15.48
2022-12-29T20:36:34.138Z,17.13
2022-12-29T20:39:06.901Z,17.55
2022-12-29T20:41:37.430Z,18.38
2022-12-29T20:44:06.343Z,19.02
2022-12-29T20:46:41.257Z,15.73
2022-12-29T20:49:12.068Z,15.90
2022-12-29T20:54:37.107Z,16.77
2022-12-29T20:57:09.304Z,23.98
2022-12-29T20:59:37.861Z,20.67
2022-12-29T21:02:06.739Z,44.33
2022-12-29T21:05:05.420Z,19.67
2022-12-29T21:07:24.159Z,22.40
2022-12-29T21:09:52.576Z,16.70
2022-12-29T21:12:22.463Z,17.38
2022-12-29T21:14:50.909Z,15.90
2022-12-29T21:17:19.308Z,18.67
2022-12-29T21:19:47.782Z,18.17
2022-12-29T21:22:16.257Z,19.10
2022-12-29T21:24:44.657Z,22.55
2022-12-29T21:27:13.125Z,16.80
2022-12-29T21:29:42.905Z,20.17
2022-12-29T21:32:11.355Z,16.55
2022-12-29T21:34:39.820Z,16.40
2022-12-29T21:37:08.221Z,15.27
2022-12-29T21:39:36.726Z,15.33
2022-12-29T21:42:05.324Z,17.97
2022-12-29T21:44:53.597Z,16.67
2022-12-29T21:47:23.439Z,19.73
2022-12-29T21:49:51.861Z,19.27
2022-12-29T21:52:20.238Z,19.70
2022-12-29T21:55:05.193Z,18.63
2022-12-29T21:57:51.182Z,21.97
2022-12-29T22:00:37.345Z,17.50
2022-12-29T22:03:24.583Z,16.60
2022-12-29T22:06:11.084Z,13.27
2022-12-29T22:08:57.359Z,17.30
2022-12-29T22:11:43.351Z,16.77
2022-12-29T22:14:11.939Z,18.43
2022-12-29T22:16:40.402Z,16.30
2022-12-29T22:19:11.111Z,15.13
2022-12-29T22:21:39.570Z,15.67
2022-12-29T22:24:10.034Z,16.87
2022-12-29T22:26:38.570Z,15.83
2022-12-29T22:29:07.046Z,17.37
2022-12-29T22:31:35.574Z,15.87
2022-12-29T22:34:06.137Z,16.58
2022-12-29T22:36:35.959Z,20.17
2022-12-29T22:39:04.467Z,17.63
2022-12-29T22:41:32.938Z,19.77
2022-12-29T22:44:01.431Z,17.67
2022-12-29T22:46:29.949Z,17.00
2022-12-29T22:48:58.763Z,20.43
2022-12-29T22:51:27.457Z,14.40
2022-12-29T22:53:58.099Z,19.53
2022-12-29T22:56:26.715Z,18.40
2022-12-29T22:58:55.163Z,15.77
2022-12-29T23:01:23.844Z,18.60
2022-12-29T23:03:52.424Z,16.27
2022-12-29T23:06:20.894Z,18.77
2022-12-29T23:08:49.431Z,21.75
2022-12-29T23:11:19.336Z,16.30
2022-12-29T23:13:47.816Z,15.25
2022-12-29T23:16:17.200Z,16.33
2022-12-29T23:18:48.073Z,20.00
2022-12-29T23:21:19.505Z,18.30
2022-12-29T23:23:54.985Z,16.70
2022-12-29T23:26:27.619Z,19.33
2022-12-29T23:29:00.197Z,16.30
2022-12-29T23:31:30.729Z,17.73
2022-12-29T23:34:00.110Z,16.07
2022-12-29T23:36:29.411Z,16.67
2022-12-29T23:38:58.390Z,18.53
2022-12-29T23:41:29.374Z,15.43
2022-12-29T23:43:57.916Z,18.77
2022-12-29T23:46:29.466Z,15.30
2022-12-29T23:48:58.439Z,22.03
2022-12-29T23:51:27.165Z,24.30
2022-12-29T23:53:55.619Z,19.13
2022-12-29T23:56:25.075Z,18.87
2022-12-29T23:58:54.926Z,17.20
